createdAt,value
2018-05-28T00:00:30.484Z,24.20
2018-05-28T00:01:35.507Z,24.20
2018-05-28T00:02:40.600Z,24.20
2018-05-28T00:03:45.347Z,24.20
2018-05-28T00:04:50.090Z,24.20
2018-05-28T00:05:55.060Z,24.20
2018-05-28T00:06:59.974Z,24.20
2018-05-28T00:08:05.025Z,24.20
2018-05-28T00:09:09.911Z,24.20
2018-05-28T00:10:14.716Z,24.20
2018-05-28T00:11:19.706Z,24.20
2018-05-28T00:12:24.585Z,24.20
2018-05-28T00:13:29.366Z,24.20
2018-05-28T00:14:34.339Z,24.20
2018-05-28T00:15:39.352Z,24.20
2018-05-28T00:16:44.179Z,24.20
2018-05-28T00:17:49.125Z,24.20
2018-05-28T00:18:54.014Z,24.20
2018-05-28T00:19:58.950Z,24.20
2018-05-28T00:21:03.595Z,24.20
2018-05-28T00:22:08.565Z,24.20
2018-05-28T00:23:13.497Z,24.20
2018-05-28T00:24:18.496Z,24.20
2018-05-28T00:25:23.841Z,24.20
2018-05-28T00:26:28.733Z,24.20
2018-05-28T00:27:33.446Z,24.20
2018-05-28T00:28:38.212Z,24.20
2018-05-28T00:29:43.297Z,24.20
2018-05-28T00:30:48.219Z,24.20
2018-05-28T00:31:53.050Z,24.20
2018-05-28T00:32:57.927Z,24.20
2018-05-28T00:34:02.634Z,24.20
2018-05-28T00:35:07.627Z,24.20
2018-05-28T00:36:12.519Z,24.20
2018-05-28T00:37:17.232Z,24.20
2018-05-28T00:38:21.898Z,24.20
2018-05-28T00:39:26.568Z,24.20
2018-05-28T00:40:31.604Z,24.20
2018-05-28T00:41:36.254Z,24.20
2018-05-28T00:42:41.043Z,24.20
2018-05-28T00:43:46.083Z,24.20
2018-05-28T00:44:50.768Z,24.20
2018-05-28T00:45:55.837Z,24.20
2018-05-28T00:47:00.687Z,24.20
2018-05-28T00:48:05.573Z,24.20
2018-05-28T00:49:10.606Z,24.20
2018-05-28T00:50:15.279Z,24.20
2018-05-28T00:51:19.964Z,24.20
2018-05-28T00:52:24.670Z,24.20
2018-05-28T00:53:29.641Z,24.20
2018-05-28T00:54:35.196Z,24.20
2018-05-28T00:55:40.209Z,24.20
2018-05-28T00:56:45.191Z,24.20
2018-05-28T00:57:50.368Z,24.20
2018-05-28T00:58:55.266Z,24.20
2018-05-28T01:00:00.422Z,24.20
2018-05-28T01:01:05.538Z,24.20
2018-05-28T01:02:10.341Z,24.20
2018-05-28T01:03:15.120Z,24.20
2018-05-28T01:04:20.131Z,24.20
2018-05-28T01:05:25.146Z,24.20
2018-05-28T01:06:30.169Z,24.20
2018-05-28T01:07:35.661Z,24.20
2018-05-28T01:08:40.680Z,24.20
2018-05-28T01:09:45.655Z,24.20
2018-05-28T01:10:50.661Z,24.20
2018-05-28T01:11:55.872Z,24.20
2018-05-28T01:13:00.811Z,24.20
2018-05-28T01:14:05.880Z,24.20
2018-05-28T01:15:10.845Z,24.20
2018-05-28T01:16:15.750Z,24.20
2018-05-28T01:17:20.864Z,24.20
2018-05-28T01:18:25.803Z,24.20
2018-05-28T01:19:30.916Z,24.20
2018-05-28T01:20:35.795Z,24.20
2018-05-28T01:21:40.557Z,24.20
2018-05-28T01:22:45.525Z,24.30
2018-05-28T01:23:50.535Z,24.20
2018-05-28T01:24:55.351Z,24.20
2018-05-28T01:26:00.317Z,24.20
2018-05-28T01:27:05.138Z,24.20
2018-05-28T01:28:09.765Z,24.30
2018-05-28T01:29:14.608Z,24.30
2018-05-28T01:30:19.583Z,24.20
2018-05-28T01:31:24.387Z,24.20
2018-05-28T01:32:29.222Z,24.20
2018-05-28T01:33:34.042Z,24.20
2018-05-28T01:34:38.727Z,24.30
2018-05-28T01:35:43.554Z,24.20
2018-05-28T01:36:48.346Z,24.30
2018-05-28T01:37:53.013Z,24.30
2018-05-28T01:38:57.904Z,24.30
2018-05-28T01:40:02.756Z,24.30
2018-05-28T01:41:07.436Z,24.30
2018-05-28T01:42:12.043Z,24.20
2018-05-28T01:43:17.054Z,24.30
2018-05-28T01:44:21.934Z,24.20
2018-05-28T01:45:26.720Z,24.30
2018-05-28T01:46:31.643Z,24.30
2018-05-28T01:47:36.460Z,24.20
2018-05-28T01:48:41.299Z,24.20
2018-05-28T01:49:46.107Z,24.20
2018-05-28T01:50:50.919Z,24.20
2018-05-28T01:51:55.783Z,24.20
2018-05-28T01:53:00.460Z,24.20
2018-05-28T01:54:05.350Z,24.20
2018-05-28T01:55:10.404Z,24.30
2018-05-28T01:56:15.057Z,24.30
2018-05-28T01:57:19.794Z,24.30
2018-05-28T01:58:24.792Z,24.20
2018-05-28T01:59:29.680Z,24.30
2018-05-28T02:00:34.589Z,24.20
2018-05-28T02:01:39.430Z,24.20
2018-05-28T02:02:44.467Z,24.30
2018-05-28T02:03:49.566Z,24.30
2018-05-28T02:04:54.295Z,24.20
2018-05-28T02:05:59.204Z,24.20
2018-05-28T02:07:03.917Z,24.20
2018-05-28T02:08:08.930Z,24.20
2018-05-28T02:09:13.787Z,24.20
2018-05-28T02:10:18.797Z,24.20
2018-05-28T02:11:23.864Z,24.30
2018-05-28T02:12:29.034Z,24.20
2018-05-28T02:13:34.108Z,24.30
2018-05-28T02:14:39.111Z,24.30
2018-05-28T02:15:44.345Z,24.30
2018-05-28T02:16:49.336Z,24.30
2018-05-28T02:17:54.306Z,24.30
2018-05-28T02:18:59.413Z,24.30
2018-05-28T02:20:04.364Z,24.30
2018-05-28T02:21:09.288Z,24.30
2018-05-28T02:22:13.969Z,24.30
2018-05-28T02:23:19.003Z,24.20
2018-05-28T02:24:23.807Z,24.30
2018-05-28T02:25:28.832Z,24.30
2018-05-28T02:26:33.684Z,24.30
2018-05-28T02:27:38.616Z,24.30
2018-05-28T02:28:43.397Z,24.30
2018-05-28T02:29:48.046Z,24.30
2018-05-28T02:30:53.030Z,24.20
2018-05-28T02:31:57.818Z,24.30
2018-05-28T02:33:02.753Z,24.30
2018-05-28T02:34:07.457Z,24.30
2018-05-28T02:35:12.306Z,24.30
2018-05-28T02:36:16.891Z,24.30
2018-05-28T02:37:21.536Z,24.30
2018-05-28T02:38:26.404Z,24.30
2018-05-28T02:39:31.290Z,24.30
2018-05-28T02:40:36.184Z,24.30
2018-05-28T02:41:41.048Z,24.30
2018-05-28T02:42:45.720Z,24.30
2018-05-28T02:43:50.771Z,24.30
2018-05-28T02:44:55.728Z,24.20
2018-05-28T02:46:00.372Z,24.30
2018-05-28T02:47:05.204Z,24.30
2018-05-28T02:48:10.058Z,24.30
2018-05-28T02:49:14.685Z,24.20
2018-05-28T02:50:19.656Z,24.30
2018-05-28T02:51:24.728Z,24.30
2018-05-28T02:52:29.788Z,24.20
2018-05-28T02:53:34.576Z,24.30
2018-05-28T02:54:39.314Z,24.20
2018-05-28T02:55:44.215Z,24.30
2018-05-28T02:56:49.036Z,24.30
2018-05-28T02:57:54.109Z,24.20
2018-05-28T02:58:59.166Z,24.20
2018-05-28T03:00:04.181Z,24.20
2018-05-28T03:01:09.034Z,24.30
2018-05-28T03:02:14.018Z,24.20
2018-05-28T03:03:18.789Z,24.30
2018-05-28T03:04:23.801Z,24.20
2018-05-28T03:05:28.670Z,24.20
2018-05-28T03:06:33.576Z,24.20
2018-05-28T03:07:38.521Z,24.30
2018-05-28T03:08:43.351Z,24.20
2018-05-28T03:09:48.394Z,24.20
2018-05-28T03:10:53.415Z,24.20
2018-05-28T03:11:58.311Z,24.20
2018-05-28T03:13:03.245Z,24.20
2018-05-28T03:14:08.105Z,24.30
2018-05-28T03:15:13.127Z,24.20
2018-05-28T03:16:17.953Z,24.20
2018-05-28T03:17:22.946Z,24.30
2018-05-28T03:18:27.747Z,24.20
2018-05-28T03:19:32.453Z,24.20
2018-05-28T03:20:37.595Z,24.20
2018-05-28T03:21:42.446Z,24.20
2018-05-28T03:22:47.128Z,24.20
2018-05-28T03:23:51.789Z,24.30
2018-05-28T03:24:56.770Z,24.20
2018-05-28T03:26:01.557Z,24.30
2018-05-28T03:27:06.599Z,24.30
2018-05-28T03:28:11.639Z,24.30
2018-05-28T03:29:16.591Z,24.30
2018-05-28T03:30:21.502Z,24.30
2018-05-28T03:31:26.267Z,24.20
2018-05-28T03:32:30.937Z,24.30
2018-05-28T03:33:35.586Z,24.30
2018-05-28T03:34:40.558Z,24.30
2018-05-28T03:35:45.466Z,24.30
2018-05-28T03:36:50.216Z,24.30
2018-05-28T03:37:54.868Z,24.20
2018-05-28T03:38:59.879Z,24.30
2018-05-28T03:40:04.583Z,24.20
2018-05-28T03:41:09.358Z,24.20
2018-05-28T03:42:14.137Z,24.20
2018-05-28T03:43:18.776Z,24.20
2018-05-28T03:44:23.391Z,24.30
2018-05-28T03:45:28.005Z,24.30
2018-05-28T03:46:32.768Z,24.30
2018-05-28T03:47:37.399Z,24.20
2018-05-28T03:48:42.293Z,24.20
2018-05-28T03:49:47.290Z,24.30
2018-05-28T03:50:52.105Z,24.20
2018-05-28T03:51:56.947Z,24.20
2018-05-28T03:53:01.790Z,24.30
2018-05-28T03:54:06.463Z,24.20
2018-05-28T03:55:11.565Z,24.20
2018-05-28T03:56:16.581Z,24.30
2018-05-28T03:57:21.739Z,24.30
2018-05-28T03:58:26.792Z,24.30
2018-05-28T03:59:31.519Z,24.30
2018-05-28T04:00:36.573Z,24.30
2018-05-28T04:01:41.497Z,24.30
2018-05-28T04:02:46.581Z,24.30
2018-05-28T04:03:51.645Z,24.30
2018-05-28T04:04:56.689Z,24.30
2018-05-28T04:06:01.635Z,24.30
2018-05-28T04:07:06.628Z,24.30
2018-05-28T04:08:11.714Z,24.30
2018-05-28T04:09:16.541Z,24.30
2018-05-28T04:10:21.296Z,24.30
2018-05-28T04:11:26.333Z,24.30
2018-05-28T04:12:31.400Z,24.30
2018-05-28T04:13:36.371Z,24.30
2018-05-28T04:14:41.480Z,24.30
2018-05-28T04:15:46.642Z,24.20
2018-05-28T04:16:51.427Z,24.30
2018-05-28T04:17:56.600Z,24.20
2018-05-28T04:19:01.654Z,24.30
2018-05-28T04:20:06.629Z,24.30
2018-05-28T04:21:11.713Z,24.30
2018-05-28T04:22:16.524Z,24.30
2018-05-28T04:23:21.547Z,24.30
2018-05-28T04:24:26.426Z,24.30
2018-05-28T04:25:31.365Z,24.30
2018-05-28T04:26:36.241Z,24.30
2018-05-28T04:27:41.914Z,24.30
2018-05-28T04:28:46.966Z,24.30
2018-05-28T04:29:52.101Z,24.30
2018-05-28T04:30:57.175Z,24.30
2018-05-28T04:32:02.153Z,24.30
2018-05-28T04:33:07.169Z,24.30
2018-05-28T04:34:12.101Z,24.30
2018-05-28T04:35:16.928Z,24.30
2018-05-28T04:36:21.794Z,24.30
2018-05-28T04:37:26.855Z,24.30
2018-05-28T04:38:31.728Z,24.30
2018-05-28T04:39:36.634Z,24.30
2018-05-28T04:40:41.543Z,24.30
2018-05-28T04:41:46.438Z,24.20
2018-05-28T04:42:51.474Z,24.30
2018-05-28T04:43:56.537Z,24.30
2018-05-28T04:45:01.345Z,24.30
2018-05-28T04:46:06.338Z,24.30
2018-05-28T04:47:11.634Z,24.30
2018-05-28T04:48:16.618Z,24.30
2018-05-28T04:49:21.503Z,24.30
2018-05-28T04:50:26.252Z,24.30
2018-05-28T04:51:31.158Z,24.30
2018-05-28T04:52:36.144Z,24.30
2018-05-28T04:53:41.428Z,24.30
2018-05-28T04:54:46.483Z,24.30
2018-05-28T04:55:52.040Z,24.30
2018-05-28T04:56:57.554Z,24.30
2018-05-28T04:58:02.468Z,24.30
2018-05-28T04:59:07.465Z,24.30
2018-05-28T05:00:12.409Z,24.30
2018-05-28T05:01:17.364Z,24.30
2018-05-28T05:02:22.108Z,24.30
2018-05-28T05:03:27.075Z,24.30
2018-05-28T05:04:32.086Z,24.30
2018-05-28T05:05:36.918Z,24.30
2018-05-28T05:06:41.743Z,24.30
2018-05-28T05:07:46.716Z,24.30
2018-05-28T05:08:51.688Z,24.30
2018-05-28T05:09:56.512Z,24.30
2018-05-28T05:11:01.344Z,24.30
2018-05-28T05:12:06.387Z,24.30
2018-05-28T05:13:11.277Z,24.30
2018-05-28T05:14:16.195Z,24.30
2018-05-28T05:15:21.150Z,24.30
2018-05-28T05:16:26.010Z,24.30
2018-05-28T05:17:30.777Z,24.30
2018-05-28T05:18:35.682Z,24.30
2018-05-28T05:19:40.540Z,24.30
2018-05-28T05:20:46.092Z,24.30
2018-05-28T05:21:51.079Z,24.30
2018-05-28T05:22:55.947Z,24.30
2018-05-28T05:24:00.786Z,24.30
2018-05-28T05:25:05.794Z,24.30
2018-05-28T05:26:10.510Z,24.30
2018-05-28T05:27:15.459Z,24.30
2018-05-28T05:28:20.345Z,24.30
2018-05-28T05:29:25.069Z,24.30
2018-05-28T05:30:29.905Z,24.30
2018-05-28T05:31:34.733Z,24.30
2018-05-28T05:32:39.571Z,24.30
2018-05-28T05:33:44.499Z,24.30
2018-05-28T05:34:49.634Z,24.30
2018-05-28T05:35:54.580Z,24.30
2018-05-28T05:36:59.398Z,24.30
2018-05-28T05:38:04.349Z,24.30
2018-05-28T05:39:09.287Z,24.30
2018-05-28T05:40:13.946Z,24.30
2018-05-28T05:41:18.765Z,24.30
2018-05-28T05:42:23.728Z,24.30
2018-05-28T05:43:28.703Z,24.30
2018-05-28T05:44:33.876Z,24.30
2018-05-28T05:45:38.765Z,24.30
2018-05-28T05:46:43.778Z,24.30
2018-05-28T05:47:48.678Z,24.30
2018-05-28T05:48:53.815Z,24.30
2018-05-28T05:49:58.772Z,24.20
2018-05-28T05:51:03.678Z,24.20
2018-05-28T05:52:08.378Z,24.10
2018-05-28T05:53:13.361Z,24.10
2018-05-28T05:54:18.268Z,24.10
2018-05-28T05:55:23.071Z,24.10
2018-05-28T05:56:28.179Z,24.10
2018-05-28T05:57:33.097Z,24.00
2018-05-28T05:58:38.064Z,24.00
2018-05-28T05:59:42.894Z,24.00
2018-05-28T06:00:48.066Z,24.00
2018-05-28T06:01:53.193Z,24.00
2018-05-28T06:02:58.060Z,23.90
2018-05-28T06:04:03.148Z,24.00
2018-05-28T06:05:08.178Z,23.90
2018-05-28T06:06:12.918Z,24.00
2018-05-28T06:07:18.082Z,24.00
2018-05-28T06:08:23.020Z,24.00
2018-05-28T06:09:27.780Z,24.00
2018-05-28T06:10:32.783Z,23.90
2018-05-28T06:11:37.804Z,24.00
2018-05-28T06:12:43.065Z,24.00
2018-05-28T06:13:47.894Z,24.00
2018-05-28T06:14:52.638Z,24.00
2018-05-28T06:15:57.551Z,23.90
2018-05-28T06:17:02.294Z,24.00
2018-05-28T06:18:07.225Z,24.00
2018-05-28T06:19:12.343Z,24.00
2018-05-28T06:20:17.249Z,24.00
2018-05-28T06:21:22.470Z,24.00
2018-05-28T06:22:27.377Z,24.00
2018-05-28T06:23:32.048Z,24.00
2018-05-28T06:24:37.032Z,24.00
2018-05-28T06:25:41.826Z,24.00
2018-05-28T06:26:47.229Z,24.00
2018-05-28T06:27:52.241Z,24.00
2018-05-28T06:28:57.162Z,24.00
2018-05-28T06:30:02.007Z,24.00
2018-05-28T06:31:06.894Z,24.00
2018-05-28T06:32:11.827Z,24.00
2018-05-28T06:33:16.699Z,24.00
2018-05-28T06:34:21.663Z,24.00
2018-05-28T06:35:26.750Z,24.00
2018-05-28T06:36:31.661Z,24.00
2018-05-28T06:37:36.547Z,24.00
2018-05-28T06:38:41.389Z,24.00
2018-05-28T06:39:46.366Z,24.00
2018-05-28T06:40:51.019Z,24.00
2018-05-28T06:41:56.095Z,23.90
2018-05-28T06:43:01.032Z,24.00
2018-05-28T06:44:05.945Z,24.00
2018-05-28T06:45:10.783Z,24.00
2018-05-28T06:46:15.598Z,24.00
2018-05-28T06:47:20.701Z,24.00
2018-05-28T06:48:25.636Z,24.00
2018-05-28T06:49:30.618Z,24.00
2018-05-28T06:50:35.600Z,24.00
2018-05-28T06:51:40.441Z,24.00
2018-05-28T06:52:45.258Z,24.00
2018-05-28T06:53:50.241Z,24.00
2018-05-28T06:54:55.179Z,24.00
2018-05-28T06:55:59.837Z,24.00
2018-05-28T06:57:04.494Z,24.00
2018-05-28T06:58:09.448Z,24.00
2018-05-28T06:59:14.287Z,24.00
2018-05-28T07:00:18.927Z,24.00
2018-05-28T07:01:23.982Z,24.00
2018-05-28T07:02:28.816Z,24.00
2018-05-28T07:03:33.606Z,24.00
2018-05-28T07:04:38.563Z,24.00
2018-05-28T07:05:43.435Z,24.00
2018-05-28T07:06:48.255Z,24.00
2018-05-28T07:07:53.066Z,24.00
2018-05-28T07:08:58.322Z,24.10
2018-05-28T07:10:03.352Z,24.00
2018-05-28T07:11:08.196Z,24.00
2018-05-28T07:12:12.935Z,24.00
2018-05-28T07:13:17.727Z,24.00
2018-05-28T07:14:22.629Z,24.00
2018-05-28T07:15:27.444Z,24.00
2018-05-28T07:16:32.071Z,24.00
2018-05-28T07:17:36.893Z,24.00
2018-05-28T07:18:41.820Z,24.00
2018-05-28T07:19:46.514Z,24.00
2018-05-28T07:20:51.216Z,24.00
2018-05-28T07:21:56.066Z,24.10
2018-05-28T07:23:01.076Z,24.10
2018-05-28T07:24:06.062Z,24.10
2018-05-28T07:25:10.790Z,24.10
2018-05-28T07:26:15.664Z,24.10
2018-05-28T07:27:20.498Z,24.10
2018-05-28T07:28:25.189Z,24.10
2018-05-28T07:29:30.087Z,24.10
2018-05-28T07:30:35.597Z,24.10
2018-05-28T07:31:40.420Z,24.10
2018-05-28T07:32:45.487Z,24.10
2018-05-28T07:33:50.140Z,24.10
2018-05-28T07:34:55.042Z,24.10
2018-05-28T07:35:59.922Z,24.20
2018-05-28T07:37:04.868Z,24.20
2018-05-28T07:38:09.821Z,24.20
2018-05-28T07:39:14.476Z,24.20
2018-05-28T07:40:19.312Z,24.20
2018-05-28T07:41:23.931Z,24.20
2018-05-28T07:42:28.894Z,24.20
2018-05-28T07:43:33.803Z,24.20
2018-05-28T07:44:38.705Z,24.20
2018-05-28T07:45:43.779Z,24.20
2018-05-28T07:46:48.671Z,24.20
2018-05-28T07:47:53.312Z,24.20
2018-05-28T07:48:58.134Z,24.20
2018-05-28T07:50:03.095Z,24.20
2018-05-28T07:51:07.922Z,24.20
2018-05-28T07:52:12.761Z,24.20
2018-05-28T07:53:17.334Z,24.20
2018-05-28T07:54:22.135Z,24.20
2018-05-28T07:55:27.101Z,24.20
2018-05-28T07:56:31.710Z,24.20
2018-05-28T07:57:36.549Z,24.20
2018-05-28T07:58:41.464Z,24.20
2018-05-28T07:59:46.328Z,24.20
2018-05-28T08:00:51.284Z,24.20
2018-05-28T08:01:56.262Z,24.20
2018-05-28T08:03:01.161Z,24.20
2018-05-28T08:04:05.945Z,24.20
2018-05-28T08:05:10.573Z,24.20
2018-05-28T08:06:15.294Z,24.30
2018-05-28T08:07:20.183Z,24.20
2018-05-28T08:08:25.120Z,24.20
2018-05-28T08:09:29.832Z,24.20
2018-05-28T08:10:34.725Z,24.30
2018-05-28T08:11:39.558Z,24.30
2018-05-28T08:12:44.481Z,24.30
2018-05-28T08:13:49.378Z,24.30
2018-05-28T08:14:54.046Z,24.30
2018-05-28T08:15:58.803Z,24.30
2018-05-28T08:17:03.569Z,24.30
2018-05-28T08:18:08.533Z,24.30
2018-05-28T08:19:13.448Z,24.30
2018-05-28T08:20:18.262Z,24.30
2018-05-28T08:21:23.053Z,24.30
2018-05-28T08:22:27.829Z,24.30
2018-05-28T08:23:32.543Z,24.30
2018-05-28T08:24:37.367Z,24.30
2018-05-28T08:25:42.147Z,24.30
2018-05-28T08:26:47.156Z,24.30
2018-05-28T08:27:52.128Z,24.30
2018-05-28T08:28:56.788Z,24.30
2018-05-28T08:30:01.559Z,24.30
2018-05-28T08:31:06.519Z,24.30
2018-05-28T08:32:11.415Z,24.30
2018-05-28T08:33:16.256Z,24.30
2018-05-28T08:34:21.041Z,24.30
2018-05-28T08:35:25.903Z,24.30
2018-05-28T08:36:30.567Z,24.30
2018-05-28T08:37:35.523Z,24.30
2018-05-28T08:38:40.390Z,24.30
2018-05-28T08:39:45.287Z,24.30
2018-05-28T08:40:49.966Z,24.30
2018-05-28T08:41:55.057Z,24.30
2018-05-28T08:42:59.906Z,24.30
2018-05-28T08:44:04.648Z,24.30
2018-05-28T08:45:09.406Z,24.30
2018-05-28T08:46:14.340Z,24.30
2018-05-28T08:47:18.973Z,24.30
2018-05-28T08:48:23.730Z,24.30
2018-05-28T08:49:28.681Z,24.30
2018-05-28T08:50:33.511Z,24.30
2018-05-28T08:51:38.329Z,24.30
2018-05-28T08:52:43.134Z,24.30
2018-05-28T08:53:47.960Z,24.30
2018-05-28T08:54:53.053Z,24.30
2018-05-28T08:55:57.988Z,24.30
2018-05-28T08:57:02.998Z,24.30
2018-05-28T08:58:07.942Z,24.30
2018-05-28T08:59:13.223Z,24.30
2018-05-28T09:00:18.292Z,24.30
2018-05-28T09:01:23.175Z,24.30
2018-05-28T09:02:28.193Z,24.30
2018-05-28T09:03:33.218Z,24.30
2018-05-28T09:04:38.104Z,24.30
2018-05-28T09:05:43.221Z,24.30
2018-05-28T09:06:48.126Z,24.30
2018-05-28T09:07:53.062Z,24.30
2018-05-28T09:08:58.197Z,24.30
2018-05-28T09:10:03.315Z,24.30
2018-05-28T09:11:08.302Z,24.30
2018-05-28T09:12:14.136Z,24.30
2018-05-28T09:13:19.108Z,24.30
2018-05-28T09:14:23.930Z,24.30
2018-05-28T09:15:29.065Z,24.30
2018-05-28T09:16:34.199Z,24.30
2018-05-28T09:17:39.173Z,24.30
2018-05-28T09:18:44.208Z,24.30
2018-05-28T09:19:49.101Z,24.40
2018-05-28T09:20:53.948Z,24.30
2018-05-28T09:21:58.739Z,24.30
2018-05-28T09:23:03.648Z,24.40
2018-05-28T09:24:08.640Z,24.40
2018-05-28T09:25:13.375Z,24.40
2018-05-28T09:26:18.222Z,24.40
2018-05-28T09:27:23.045Z,24.40
2018-05-28T09:28:27.914Z,24.40
2018-05-28T09:29:32.948Z,24.40
2018-05-28T09:30:37.721Z,24.30
2018-05-28T09:31:42.684Z,24.40
2018-05-28T09:32:47.627Z,24.40
2018-05-28T09:33:52.328Z,24.40
2018-05-28T09:34:56.956Z,24.40
2018-05-28T09:36:01.771Z,24.40
2018-05-28T09:37:06.845Z,24.40
2018-05-28T09:38:11.669Z,24.40
2018-05-28T09:39:16.700Z,24.40
2018-05-28T09:40:21.511Z,24.40
2018-05-28T09:41:26.301Z,24.40
2018-05-28T09:42:31.075Z,24.40
2018-05-28T09:43:35.984Z,24.40
2018-05-28T09:44:41.040Z,24.40
2018-05-28T09:45:46.090Z,24.40
2018-05-28T09:46:51.189Z,24.40
2018-05-28T09:47:56.097Z,24.40
2018-05-28T09:49:01.031Z,24.40
2018-05-28T09:50:05.825Z,24.40
2018-05-28T09:51:10.819Z,24.40
2018-05-28T09:52:15.875Z,24.40
2018-05-28T09:53:21.021Z,24.40
2018-05-28T09:54:25.911Z,24.40
2018-05-28T09:55:30.806Z,24.40
2018-05-28T09:56:36.932Z,24.40
2018-05-28T09:57:42.248Z,24.40
2018-05-28T09:58:46.973Z,24.40
2018-05-28T09:59:51.878Z,24.40
2018-05-28T10:00:56.805Z,24.40
2018-05-28T10:02:01.896Z,24.40
2018-05-28T10:03:06.750Z,24.40
2018-05-28T10:04:11.640Z,24.50
2018-05-28T10:05:16.819Z,24.50
2018-05-28T10:06:21.898Z,24.50
2018-05-28T10:07:26.914Z,24.50
2018-05-28T10:08:31.916Z,24.50
2018-05-28T10:09:36.873Z,24.50
2018-05-28T10:10:41.569Z,24.40
2018-05-28T10:11:46.406Z,24.50
2018-05-28T10:12:51.345Z,24.50
2018-05-28T10:13:56.396Z,24.50
2018-05-28T10:15:01.469Z,24.50
2018-05-28T10:16:06.157Z,24.50
2018-05-28T10:17:10.948Z,24.50
2018-05-28T10:18:15.776Z,24.50
2018-05-28T10:19:20.730Z,24.50
2018-05-28T10:20:25.805Z,24.50
2018-05-28T10:21:30.687Z,24.50
2018-05-28T10:22:35.558Z,24.50
2018-05-28T10:23:40.556Z,24.50
2018-05-28T10:24:45.353Z,24.50
2018-05-28T10:25:50.075Z,24.50
2018-05-28T10:26:55.337Z,24.50
2018-05-28T10:28:00.210Z,24.50
2018-05-28T10:29:04.961Z,24.50
2018-05-28T10:30:10.094Z,24.50
2018-05-28T10:31:14.974Z,24.50
2018-05-28T10:32:19.895Z,24.50
2018-05-28T10:33:24.681Z,24.50
2018-05-28T10:34:29.594Z,24.50
2018-05-28T10:35:34.581Z,24.50
2018-05-28T10:36:39.367Z,24.50
2018-05-28T10:37:44.186Z,24.50
2018-05-28T10:38:49.107Z,24.50
2018-05-28T10:39:54.106Z,24.50
2018-05-28T10:40:58.869Z,24.50
2018-05-28T10:42:03.683Z,24.50
2018-05-28T10:43:08.443Z,24.50
2018-05-28T10:44:13.174Z,24.50
2018-05-28T10:45:17.838Z,24.50
2018-05-28T10:46:22.682Z,24.60
2018-05-28T10:47:27.487Z,24.50
2018-05-28T10:48:32.271Z,24.50
2018-05-28T10:49:37.213Z,24.50
2018-05-28T10:50:42.070Z,24.60
2018-05-28T10:51:47.061Z,24.60
2018-05-28T10:52:51.692Z,24.60
2018-05-28T10:53:56.629Z,24.60
2018-05-28T10:55:01.302Z,24.60
2018-05-28T10:56:06.053Z,24.60
2018-05-28T10:57:11.136Z,24.60
2018-05-28T10:58:15.979Z,24.60
2018-05-28T10:59:21.474Z,24.60
2018-05-28T11:00:26.313Z,24.60
2018-05-28T11:01:31.236Z,24.60
2018-05-28T11:02:36.507Z,24.60
2018-05-28T11:03:41.418Z,24.60
2018-05-28T11:04:46.374Z,24.60
2018-05-28T11:05:51.254Z,24.60
2018-05-28T11:06:56.244Z,24.60
2018-05-28T11:08:01.146Z,24.60
2018-05-28T11:09:06.051Z,24.60
2018-05-28T11:10:10.948Z,24.60
2018-05-28T11:11:15.676Z,24.60
2018-05-28T11:12:20.468Z,24.60
2018-05-28T11:13:25.461Z,24.60
2018-05-28T11:14:30.345Z,24.50
2018-05-28T11:15:35.706Z,24.60
2018-05-28T11:16:40.732Z,24.60
2018-05-28T11:17:45.569Z,24.60
2018-05-28T11:18:50.541Z,24.60
2018-05-28T11:19:55.287Z,24.60
2018-05-28T11:21:01.305Z,24.60
2018-05-28T11:22:06.284Z,24.60
2018-05-28T11:23:11.283Z,24.60
2018-05-28T11:24:16.569Z,24.60
2018-05-28T11:25:21.369Z,24.60
2018-05-28T11:26:26.421Z,24.60
2018-05-28T11:27:31.371Z,24.60
2018-05-28T11:28:36.250Z,24.60
2018-05-28T11:29:41.408Z,24.70
2018-05-28T11:30:46.766Z,24.70
2018-05-28T11:31:51.732Z,24.70
2018-05-28T11:32:56.535Z,24.70
2018-05-28T11:34:01.515Z,24.70
2018-05-28T11:35:06.457Z,24.70
2018-05-28T11:36:11.131Z,24.70
2018-05-28T11:37:15.934Z,24.70
2018-05-28T11:38:20.881Z,24.70
2018-05-28T11:39:25.859Z,24.70
2018-05-28T11:40:30.714Z,24.70
2018-05-28T11:41:35.502Z,24.70
2018-05-28T11:42:40.629Z,24.70
2018-05-28T11:43:45.553Z,24.70
2018-05-28T11:44:50.561Z,24.70
2018-05-28T11:45:55.809Z,24.70
2018-05-28T11:47:00.833Z,24.70
2018-05-28T11:48:05.713Z,24.70
2018-05-28T11:49:10.416Z,24.70
2018-05-28T11:50:15.284Z,24.70
2018-05-28T11:51:20.199Z,24.70
2018-05-28T11:52:25.119Z,24.80
2018-05-28T11:53:30.056Z,24.80
2018-05-28T11:54:34.969Z,24.80
2018-05-28T11:55:39.664Z,24.80
2018-05-28T11:56:44.517Z,24.80
2018-05-28T11:57:49.525Z,24.80
2018-05-28T11:58:54.673Z,24.80
2018-05-28T11:59:59.460Z,24.80
2018-05-28T12:01:04.525Z,24.80
2018-05-28T12:02:09.705Z,24.80
2018-05-28T12:03:14.679Z,24.80
2018-05-28T12:04:19.778Z,24.80
2018-05-28T12:05:24.757Z,24.80
2018-05-28T12:06:29.854Z,24.80
2018-05-28T12:07:34.765Z,24.80
2018-05-28T12:08:39.639Z,24.80
2018-05-28T12:09:44.429Z,24.80
2018-05-28T12:10:49.278Z,24.80
2018-05-28T12:11:54.177Z,24.80
2018-05-28T12:12:58.936Z,24.80
2018-05-28T12:14:03.860Z,24.80
2018-05-28T12:15:08.975Z,24.80
2018-05-28T12:16:13.848Z,24.80
2018-05-28T12:17:18.829Z,24.80
2018-05-28T12:18:23.911Z,24.80
2018-05-28T12:19:28.981Z,24.80
2018-05-28T12:20:33.818Z,24.80
2018-05-28T12:21:38.884Z,24.80
2018-05-28T12:22:43.881Z,24.80
2018-05-28T12:23:48.771Z,24.90
2018-05-28T12:24:54.038Z,24.90
2018-05-28T12:25:58.881Z,24.90
2018-05-28T12:27:03.887Z,24.90
2018-05-28T12:28:08.728Z,24.90
2018-05-28T12:29:13.444Z,24.90
2018-05-28T12:30:18.336Z,24.90
2018-05-28T12:31:23.186Z,24.90
2018-05-28T12:32:28.109Z,24.90
2018-05-28T12:33:33.169Z,24.90
2018-05-28T12:34:38.211Z,24.90
2018-05-28T12:35:42.964Z,24.90
2018-05-28T12:36:47.984Z,24.90
2018-05-28T12:37:53.092Z,24.90
2018-05-28T12:38:58.270Z,24.90
2018-05-28T12:40:03.479Z,24.90
2018-05-28T12:41:08.359Z,24.90
2018-05-28T12:42:13.445Z,24.90
2018-05-28T12:43:18.236Z,24.90
2018-05-28T12:44:23.101Z,24.90
2018-05-28T12:45:28.024Z,24.90
2018-05-28T12:46:32.831Z,24.90
2018-05-28T12:47:37.765Z,24.90
2018-05-28T12:48:42.543Z,24.90
2018-05-28T12:49:47.459Z,24.90
2018-05-28T12:50:52.409Z,24.90
2018-05-28T12:51:57.279Z,24.90
2018-05-28T12:53:02.264Z,24.90
2018-05-28T12:54:11.843Z,24.90
2018-05-28T12:55:16.837Z,24.90
2018-05-28T12:56:21.991Z,24.90
2018-05-28T12:57:27.269Z,24.90
2018-05-28T12:58:32.087Z,24.90
2018-05-28T12:59:37.265Z,24.90
2018-05-28T13:00:42.105Z,24.90
2018-05-28T13:01:46.925Z,24.90
2018-05-28T13:02:51.713Z,24.90
2018-05-28T13:03:56.659Z,24.90
2018-05-28T13:05:01.695Z,24.90
2018-05-28T13:06:06.607Z,24.90
2018-05-28T13:07:11.356Z,24.90
2018-05-28T13:08:16.229Z,24.90
2018-05-28T13:09:21.311Z,24.90
2018-05-28T13:10:26.675Z,24.90
2018-05-28T13:11:31.731Z,24.90
2018-05-28T13:12:37.101Z,24.90
2018-05-28T13:13:41.905Z,24.90
2018-05-28T13:14:46.857Z,24.90
2018-05-28T13:15:51.809Z,24.90
2018-05-28T13:16:56.645Z,24.90
2018-05-28T13:18:01.745Z,24.90
2018-05-28T13:19:06.534Z,24.90
2018-05-28T13:20:11.416Z,24.90
2018-05-28T13:21:16.216Z,24.90
2018-05-28T13:22:21.153Z,24.90
2018-05-28T13:23:26.309Z,24.90
2018-05-28T13:24:31.337Z,24.90
2018-05-28T13:25:36.067Z,24.90
2018-05-28T13:26:41.015Z,24.90
2018-05-28T13:27:45.768Z,24.90
2018-05-28T13:28:50.495Z,24.90
2018-05-28T13:29:55.275Z,24.90
2018-05-28T13:31:00.240Z,24.90
2018-05-28T13:32:05.213Z,24.90
2018-05-28T13:33:09.935Z,24.90
2018-05-28T13:34:15.095Z,24.90
2018-05-28T13:35:20.382Z,24.90
2018-05-28T13:36:25.114Z,24.90
2018-05-28T13:37:30.005Z,24.90
2018-05-28T13:38:35.391Z,24.90
2018-05-28T13:39:40.416Z,24.90
2018-05-28T13:40:46.611Z,24.90
2018-05-28T13:41:51.523Z,24.90
2018-05-28T13:42:56.478Z,24.90
2018-05-28T13:44:01.305Z,24.90
2018-05-28T13:45:06.321Z,24.90
2018-05-28T13:46:11.444Z,24.90
2018-05-28T13:47:16.338Z,24.90
2018-05-28T13:48:21.045Z,24.90
2018-05-28T13:49:25.982Z,24.90
2018-05-28T13:50:30.800Z,24.90
2018-05-28T13:51:35.777Z,24.90
2018-05-28T13:52:40.885Z,24.90
2018-05-28T13:53:46.196Z,24.90
2018-05-28T13:54:51.268Z,24.90
2018-05-28T13:55:56.211Z,24.90